Αναφορές METAR Αεροδρομίων

 

LGTS - THESSALONIKI - GREECE
Ενημερώθηκε: 10/12/2019 18:50
Βροχή, Σχεδόν νεφελώδης
Βροχή, Σχεδόν νεφελώδης
 Ανεμος από varies
Ανεμος: varies 6 km/h
Θερμοκρασία: 11°C
Σημείο Δρόσου: 10°C
Υγρασία: 94%
Βαρόμετρο: 1011 hPa
Περίληψη: Βροχή
Clouds: Σχεδόν νεφελώδης
Visibility: 8 km
Cloud details: Αραιές Νεφώσεις 244 m
Σχεδόν νεφελώδης 762 m
2019/12/10 16:50 LGTS 101650Z VRB03KT 8000 RA FEW008 BKN025 11/10 Q1011 NOSIG
LGLR - LARTISA - GREECE
Ενημερώθηκε: 10/12/2019 18:50
Ασθενής βροχή, Mist, Συννεφιά
Ασθενής βροχή, Mist, Συννεφιά
 Ανεμος από calm
Ανεμος: Απνοια
Θερμοκρασία: 9°C
Σημείο Δρόσου: 9°C
Υγρασία: 100%
Βαρόμετρο: 1008 hPa
Περίληψη: Ασθενής βροχή, Mist
Clouds: Συννεφιά
Visibility: 4 km
Cloud details: Αραιές Νεφώσεις 305 m
Μερικώς νεφελώδης 914 m
Συννεφιά 2438 m
2019/12/10 16:50 LGLR 101650Z 00000KT 4000 -RA BR FEW010 SCT030 OVC080 09/09 Q1008 GRN
 
LGKZ - KOZANI - GREECE
Ενημερώθηκε: 10/12/2019 18:50
Ασθενής βροχή
Ασθενής βροχή
 Ανεμος από Β
Ανεμος: Β 7 km/h
Θερμοκρασία: 7°C
Wind Chill: 6°C
Σημείο Δρόσου: 6°C
Υγρασία: 93%
Βαρόμετρο: 1009 hPa
Περίληψη: Ασθενής βροχή
2019/12/10 16:50 LGKZ 101650Z AUTO 35004KT 310V020 //// -RA ////// 07/06 Q1009 RE//
LGKV - KAVALA - GREECE
Ενημερώθηκε: 10/12/2019 18:50
Συννεφιά
Συννεφιά
 Ανεμος από ΑΒΑ
Ανεμος: ΑΒΑ 7 km/h
Θερμοκρασία: 10°C
Wind Chill: 9°C
Σημείο Δρόσου: 8°C
Υγρασία: 88%
Βαρόμετρο: 1011 hPa
Clouds: Συννεφιά
Visibility: 10 km
Cloud details: Μερικώς νεφελώδης 762 m
Συννεφιά 2134 m
2019/12/10 16:50 LGKV 101650Z 06004KT 9999 SCT025 OVC070 10/08 Q1011
 
LGIO - IOANNINA - GREECE
Ενημερώθηκε: 10/12/2019 18:50
Ασθενής βροχή, Συννεφιά
Ασθενής βροχή, Συννεφιά
 Ανεμος από ΔΒΔ
Ανεμος: ΔΒΔ 4 km/h
Θερμοκρασία: 8°C
Σημείο Δρόσου: 8°C
Υγρασία: 100%
Βαρόμετρο: 1006 hPa
Περίληψη: Ασθενής βροχή
Clouds: Συννεφιά
Visibility: 6 km
Cloud details: Μερικώς νεφελώδης 152 m
Σχεδόν νεφελώδης 914 m
Συννεφιά 2134 m
2019/12/10 16:50 LGIO 101650Z 30002KT 6000 -RA SCT005 BKN030 OVC070 08/08 Q1006
LGBL - BOLOS - GREECE
Ενημερώθηκε: 10/12/2019 18:50
Ασθενής βροχή, Συννεφιά
Ασθενής βροχή, Συννεφιά
 Ανεμος από Δ
Ανεμος: Δ 13 km/h
Θερμοκρασία: 10°C
Wind Chill: 8°C
Σημείο Δρόσου: 9°C
Υγρασία: 94%
Βαρόμετρο: 1008 hPa
Περίληψη: Ασθενής βροχή
Clouds: Συννεφιά
Visibility: 5 km
Cloud details: Αραιές Νεφώσεις 366 m
Μερικώς νεφελώδης 762 m
Συννεφιά 2438 m
2019/12/10 16:50 LGBL 101650Z 26007KT 5000 -RA FEW012 SCT025 OVC080 10/09 Q1008
 
LGMT - MITILINI - GREECE
Ενημερώθηκε: 10/12/2019 18:50
Αραιές Νεφώσεις
Αραιές Νεφώσεις
 Ανεμος από Ν
Ανεμος: Ν 7 km/h
Θερμοκρασία: 13°C
Σημείο Δρόσου: 7°C
Υγρασία: 67%
Βαρόμετρο: 1011 hPa
Clouds: Αραιές Νεφώσεις
Visibility: 10 km
Cloud details: Αραιές Νεφώσεις 762 m
2019/12/10 16:50 LGMT 101650Z 17004KT 9999 FEW025 13/07 Q1011
LGAV - ATHENS - GREECE
Ενημερώθηκε: 10/12/2019 18:50
Βροχή, Σχεδόν νεφελώδης
Βροχή, Σχεδόν νεφελώδης
 Ανεμος από Β
Ανεμος: Β 7 km/h
Θερμοκρασία: 12°C
Σημείο Δρόσου: 10°C
Υγρασία: 88%
Βαρόμετρο: 1007 hPa
Περίληψη: Βροχή
Clouds: Σχεδόν νεφελώδης
Visibility: 8 km
Cloud details: Αραιές Νεφώσεις 305 m
Αραιές Νεφώσεις 457 m
Σχεδόν νεφελώδης 762 m
2019/12/10 16:50 LGAV 101650Z 36004KT 8000 RA FEW010 FEW015TCU BKN025 12/10 Q1007 NOSIG
 
LGRP - RODOS - GREECE
Ενημερώθηκε: 10/12/2019 18:50
Μερικώς νεφελώδης
Μερικώς νεφελώδης
 Ανεμος από varies
Ανεμος: varies 4 km/h
Θερμοκρασία: 16°C
Σημείο Δρόσου: 11°C
Υγρασία: 72%
Βαρόμετρο: 1010 hPa
Clouds: Μερικώς νεφελώδης
Visibility: 10 km
Cloud details: Αραιές Νεφώσεις 549 m
Μερικώς νεφελώδης 762 m
2019/12/10 16:50 LGRP 101650Z VRB02KT 9999 FEW018 SCT025 16/11 Q1010 NOSIG
LGIR - HRAKLIO/KRITI - GREECE
Ενημερώθηκε: 10/12/2019 18:50
Μερικώς νεφελώδης
Μερικώς νεφελώδης
 Ανεμος από ΝΝΑ
Ανεμος: ΝΝΑ 9 km/h
Θερμοκρασία: 15°C
Σημείο Δρόσου: 13°C
Υγρασία: 88%
Βαρόμετρο: 1006 hPa
Clouds: Μερικώς νεφελώδης
Visibility: 10 km
Cloud details: Μερικώς νεφελώδης 762 m
Μερικώς νεφελώδης 2438 m
2019/12/10 16:50 LGIR 101650Z 16005KT 9999 SCT025 SCT080 15/13 Q1006 NOSIG
 
LGMK - MIKONOS - GREECE
Ενημερώθηκε: 10/12/2019 18:50
Μερικώς νεφελώδης
Μερικώς νεφελώδης
 Ανεμος από ΑΝΑ
Ανεμος: ΑΝΑ 22 km/h
Θερμοκρασία: 15°C
Σημείο Δρόσου: 9°C
Υγρασία: 68%
Βαρόμετρο: 1007 hPa
Clouds: Μερικώς νεφελώδης
Visibility: 10 km
Cloud details: Αραιές Νεφώσεις 549 m
Μερικώς νεφελώδης 914 m
2019/12/10 16:50 LGMK 101650Z 11012KT 9999 FEW018 SCT030 15/09 Q1007
LGKR - KERKIRA - GREECE
Ενημερώθηκε: 10/12/2019 18:50
Ασθενής βροχή, Σχεδόν νεφελώδης
Ασθενής βροχή, Σχεδόν νεφελώδης
 Ανεμος από Α
Ανεμος: Α 4 km/h
Θερμοκρασία: 13°C
Σημείο Δρόσου: 12°C
Υγρασία: 94%
Βαρόμετρο: 1005 hPa
Περίληψη: Ασθενής βροχή
Clouds: Σχεδόν νεφελώδης
Visibility: 10 km
Cloud details: Μερικώς νεφελώδης 549 m
Μερικώς νεφελώδης 762 m
Σχεδόν νεφελώδης 2438 m
2019/12/10 16:50 LGKR 101650Z 10002KT 9999 -RA SCT018 SCT025 BKN080 13/12 Q1005 NOSIG